Bookmark and Share
Track history (hours):
 

Oslo Bulk 1

Last reported at 2014-Apr-02 18:29 UTC. Time now 2014-Apr-19 06:55 UTC.
Position S 32°31' E 152°46'.
Warning: this ship's position is 16 days out of date.

Length 108 m; draft 6.7 m.

Type: Cargo ship. MMSI: 564010000.

NotesDate/timePositionNaut miles runAvg speedWind from/ knotsBaromVisibWave heightAir tempDewpointWater temp
2014-Apr-02 18:29S 32°31' E 152°46'8 9.1
2014-Apr-02 17:34S 32°38' E 152°41'9 8.9
2014-Apr-02 16:33S 32°46' E 152°36'8 8.4
2014-Apr-02 15:33S 32°53' E 152°31'9 7.8
2014-Apr-02 14:27S 33°00' E 152°25'7 7.5
2014-Apr-02 13:33S 33°06' E 152°22'8 7.7
2014-Apr-02 12:30S 33°12' E 152°15'  
2014-Mar-29 08:27S 37°11' E 150°18'1111.9
2014-Mar-29 07:33S 37°22' E 150°14'1211.6
2014-Mar-29 06:33S 37°33' E 150°10'1111.3
2014-Mar-29 05:33S 37°44' E 150°06'1211.7
2014-Mar-29 04:31S 37°51' E 149°54'1111.4
2014-Mar-29 03:33S 37°57' E 149°42'17811.6
2014-Mar-28 12:10S 39°16' E 146°18'95 9.0
2014-Mar-28 01:33S 38°11' E 144°49'1010.5
2014-Mar-28 00:33S 38°05' E 144°38'  
2014-Mar-25 17:32S 39°04' E 145°57'1110.4
2014-Mar-25 16:32S 39°09' E 146°08'1010.3
2014-Mar-25 15:32S 39°11' E 146°21'1110.6
2014-Mar-25 14:32S 39°08' E 146°34'1010.1
2014-Mar-25 13:31S 39°04' E 146°47'9 9.7
2014-Mar-25 12:33S 39°01' E 146°58'9 9.6
2014-Mar-25 11:34S 38°58' E 147°09'10 9.6
2014-Mar-25 10:33S 38°55' E 147°21'10 9.9
2014-Mar-25 09:34S 38°52' E 147°33'  

Dump ship's entire track history

sailing weather and tide predictions

Oslo Bulk 1 — 9V8766 — position and weather